Time;durP1;ratioP1;P1;durP2;ratioP2;P2;SDS_P1;SDS_P2;PMS_P1;PMS_P2;Temp;Humidity;BMP_temperature;BMP_pressure;BME280_temperature;BME280_humidity;BME280_pressure;Samples;Min_cycle;Max_cycle;Signal;HPM_P1;HPM_P2
2023/03/23 00:00:27;;;;;;;3.17;1.70;;;12.40;94.30;;;11.85;64.76;99828.78;4974549;28;20214;-73
2023/03/23 00:02:58;;;;;;;5.60;1.90;;;12.40;94.30;;;11.90;64.93;99825.53;4974285;28;20283;-73
2023/03/23 00:05:29;;;;;;;3.33;1.73;;;12.50;94.20;;;11.94;64.70;99826.81;4974037;28;20228;-73
2023/03/23 00:08:02;;;;;;;5.10;2.00;;;12.50;94.30;;;11.96;65.81;99814.03;4974394;28;20236;-73
2023/03/23 00:10:35;;;;;;;3.97;2.00;;;12.50;94.70;;;11.91;67.52;99821.84;4974623;28;20233;-73
2023/03/23 00:13:06;;;;;;;4.23;1.90;;;12.50;95.60;;;11.87;68.06;99823.22;4974315;28;20646;-73
2023/03/23 00:15:41;;;;;;;3.67;2.07;;;12.50;95.90;;;11.79;69.57;99815.28;4974158;28;20229;-73
2023/03/23 00:18:21;;;;;;;7.03;2.30;;;12.40;96.60;;;11.74;69.92;99826.63;4990424;28;20193;-73
2023/03/23 00:20:54;;;;;;;4.97;2.17;;;12.40;96.80;;;11.69;71.93;99816.41;4974204;28;20232;-73
2023/03/23 00:23:29;;;;;;;3.33;1.93;;;12.30;97.50;;;11.63;72.46;99809.13;4974196;28;20229;-73
2023/03/23 00:26:00;;;;;;;3.50;2.20;;;12.20;97.80;;;11.56;72.84;99813.59;4974056;28;20270;-73
2023/03/23 00:28:32;;;;;;;7.70;2.60;;;12.20;98.20;;;11.55;72.87;99819.13;4974174;28;20224;-73
2023/03/23 00:31:06;;;;;;;3.50;1.90;;;12.20;98.00;;;11.53;72.18;99819.34;4974238;28;20605;-73
2023/03/23 00:33:40;;;;;;;4.90;2.33;;;12.20;98.00;;;11.51;73.13;99805.28;4974200;28;20204;-73
2023/03/23 00:36:14;;;;;;;3.97;2.20;;;12.10;98.10;;;11.47;72.89;99809.34;4975320;28;20224;-73
2023/03/23 00:38:46;;;;;;;6.30;2.47;;;12.10;98.50;;;11.45;73.91;99802.53;4974129;28;20381;-73
2023/03/23 00:41:17;;;;;;;5.57;2.30;;;12.00;98.60;;;11.41;74.38;99812.78;4973832;28;20236;-73
2023/03/23 00:43:48;;;;;;;4.67;2.03;;;12.00;99.20;;;11.40;74.65;99811.16;4973635;28;20617;-73
2023/03/23 00:46:20;;;;;;;6.17;2.30;;;12.00;99.20;;;11.33;74.46;99807.56;4973930;28;20594;-73
2023/03/23 00:48:51;;;;;;;4.37;2.50;;;12.00;99.20;;;11.31;75.42;99808.72;4973722;28;20201;-73
2023/03/23 00:51:22;;;;;;;4.63;2.40;;;11.90;99.60;;;11.29;75.75;99795.53;4973713;28;20215;-73
2023/03/23 00:53:55;;;;;;;3.83;2.37;;;11.90;99.80;;;11.24;75.65;99787.22;4973710;28;20200;-73
2023/03/23 00:56:26;;;;;;;4.60;2.33;;;11.90;99.90;;;11.22;75.90;99793.78;4975090;28;20240;-73
2023/03/23 00:58:56;;;;;;;5.60;2.57;;;11.80;99.90;;;11.18;76.98;99791.50;4973613;28;20291;-73
2023/03/23 01:01:27;;;;;;;3.50;2.40;;;11.80;99.90;;;11.18;76.73;99787.97;4973511;28;20552;-73
2023/03/23 01:04:00;;;;;;;5.73;2.57;;;11.80;99.90;;;11.16;77.28;99792.69;4973555;28;20232;-73
2023/03/23 01:06:34;;;;;;;6.40;2.97;;;11.80;99.90;;;11.16;77.76;99792.69;4973417;28;20232;-73
2023/03/23 01:09:10;;;;;;;3.17;2.50;;;11.70;99.90;;;11.14;77.41;99786.69;4973449;28;20583;-73
2023/03/23 01:11:41;;;;;;;4.03;2.67;;;11.80;99.90;;;11.13;77.77;99790.38;4973647;28;20653;-73
2023/03/23 01:14:14;;;;;;;4.73;2.47;;;11.70;99.90;;;11.15;77.52;99772.28;4973358;28;20193;-73
2023/03/23 01:16:45;;;;;;;4.20;2.47;;;11.80;99.90;;;11.12;78.21;99778.03;4973416;28;20645;-73
2023/03/23 01:19:16;;;;;;;3.83;2.87;;;11.80;99.90;;;11.12;78.26;99786.06;4989772;28;20259;-73
2023/03/23 01:21:47;;;;;;;3.80;2.60;;;11.70;99.90;;;11.06;79.07;99770.75;4973578;28;20204;-73
2023/03/23 01:24:19;;;;;;;4.30;2.77;;;11.70;99.90;;;11.04;78.92;99778.94;4973212;28;20221;-73
2023/03/23 01:26:50;;;;;;;4.10;2.70;;;11.70;99.90;;;11.04;79.07;99770.06;4973463;28;20200;-73
2023/03/23 01:29:20;;;;;;;5.70;2.87;;;11.60;99.90;;;11.01;79.10;99765.94;4973289;28;20205;-73
2023/03/23 01:31:51;;;;;;;2.70;2.40;;;11.60;99.90;;;11.02;78.83;99759.56;4973218;28;20204;-73
2023/03/23 01:34:22;;;;;;;4.60;3.03;;;11.60;99.90;;;11.03;78.71;99763.03;4973086;28;20212;-73
2023/03/23 01:36:52;;;;;;;4.37;2.63;;;11.60;99.90;;;11.03;78.47;99757.69;4973450;28;20196;-73
2023/03/23 01:39:24;;;;;;;4.10;3.30;;;11.60;99.90;;;11.02;79.21;99746.16;4973150;28;20197;-73
2023/03/23 01:41:55;;;;;;;4.40;2.60;;;11.60;99.90;;;11.01;79.20;99754.38;4973431;28;20200;-73
2023/03/23 01:45:23;;;;;;;5.40;2.80;;;11.60;99.90;;;11.02;79.59;99756.06;4973035;28;20228;-73
2023/03/23 01:48:14;;;;;;;6.50;2.63;;;11.60;99.90;;;11.02;79.29;99753.38;4917889;29;20244;-73
2023/03/23 01:50:52;;;;;;;5.53;2.73;;;11.60;99.90;;;11.01;79.01;99749.03;4918131;29;20322;-73
2023/03/23 01:53:26;;;;;;;4.47;3.20;;;11.60;99.90;;;10.99;79.79;99745.72;4959128;28;20226;-73
2023/03/23 01:56:01;;;;;;;4.50;2.57;;;11.60;99.90;;;10.99;79.84;99735.00;4974441;28;20227;-73
2023/03/23 01:58:37;;;;;;;4.13;2.70;;;11.60;99.90;;;10.99;80.10;99738.47;4973264;28;20196;-73
2023/03/23 02:01:13;;;;;;;3.83;2.80;;;11.60;99.90;;;10.96;80.37;99740.72;4972972;28;20201;-73
2023/03/23 02:03:49;;;;;;;5.13;3.00;;;11.60;99.90;;;10.95;79.71;99744.41;4973051;28;20228;-73
2023/03/23 02:06:20;;;;;;;6.40;2.67;;;11.60;99.90;;;10.97;79.38;99743.22;4972792;28;20231;-73
2023/03/23 02:08:53;;;;;;;5.10;2.53;;;11.60;99.90;;;10.98;78.95;99739.53;4972884;28;20201;-73
2023/03/23 02:11:26;;;;;;;2.90;2.50;;;11.60;99.90;;;10.98;79.82;99744.88;4972739;28;20204;-73
2023/03/23 02:13:57;;;;;;;3.50;2.70;;;11.60;99.90;;;10.97;80.24;99742.38;4972675;28;20210;-73
2023/03/23 02:16:42;;;;;;;6.57;3.63;;;11.60;99.90;;;10.94;80.79;99742.75;4972600;28;20229;-72
2023/03/23 02:19:53;;;;;;;4.47;2.77;;;11.60;99.90;;;10.92;80.95;99736.75;4972871;28;20204;-72
2023/03/23 02:23:17;;;;;;;4.37;2.73;;;11.60;99.90;;;10.92;80.82;99744.78;4972650;28;20205;-72
2023/03/23 02:26:07;;;;;;;4.50;2.80;;;11.50;99.90;;;10.90;80.77;99733.44;4972704;28;20315;-72
2023/03/23 02:29:14;;;;;;;4.13;2.90;;;11.50;99.90;;;10.87;80.60;99710.53;4975528;28;20212;-72
2023/03/23 02:32:02;;;;;;;6.00;3.33;;;11.50;99.90;;;10.85;81.46;99720.63;4976266;28;20208;-72
2023/03/23 02:34:42;;;;;;;5.33;3.10;;;11.50;99.90;;;10.85;81.44;99709.06;4975892;28;20237;-73
2023/03/23 02:37:21;;;;;;;5.83;3.20;;;11.50;99.90;;;10.87;80.71;99717.72;4975958;28;20213;-73
2023/03/23 02:39:57;;;;;;;6.37;3.40;;;11.50;99.90;;;10.87;80.47;99720.41;4976190;28;20204;-72
2023/03/23 02:42:32;;;;;;;4.83;2.97;;;11.50;99.90;;;10.84;81.46;99715.44;4976157;28;20239;-72
2023/03/23 02:45:08;;;;;;;4.73;2.93;;;11.50;99.90;;;10.86;81.59;99718.75;4976003;28;20323;-72
2023/03/23 02:47:42;;;;;;;4.13;2.90;;;11.50;99.90;;;10.83;80.98;99706.56;4975789;28;20205;-72
2023/03/23 02:50:19;;;;;;;4.20;2.70;;;11.50;99.90;;;10.84;80.84;99702.88;4976006;28;20223;-72
2023/03/23 02:52:54;;;;;;;5.93;2.50;;;11.40;99.90;;;10.82;80.57;99696.06;4975958;28;20240;-72
2023/03/23 02:55:24;;;;;;;3.77;2.47;;;11.50;99.90;;;10.83;80.53;99701.22;4975646;28;20228;-72
2023/03/23 02:57:57;;;;;;;3.47;2.23;;;11.40;99.90;;;10.84;80.74;99688.66;4975586;28;20259;-72
2023/03/23 03:00:28;;;;;;;4.47;2.60;;;11.50;99.90;;;10.84;80.70;99710.06;4975557;28;20201;-72
2023/03/23 03:03:00;;;;;;;5.80;2.70;;;11.50;99.90;;;10.78;80.98;99706.31;4975418;28;20660;-72
2023/03/23 03:05:54;;;;;;;4.67;2.50;;;11.40;99.90;;;10.76;80.92;99711.00;4975412;28;20236;-72
2023/03/23 03:08:35;;;;;;;5.60;2.90;;;11.40;99.90;;;10.74;80.65;99698.81;4975436;28;20603;-71
2023/03/23 03:11:10;;;;;;;3.80;2.87;;;11.40;99.90;;;10.76;80.44;99696.78;4975663;28;20205;-72
2023/03/23 03:13:52;;;;;;;6.60;2.93;;;11.40;99.90;;;10.77;80.60;99690.41;4975520;28;20239;-72
2023/03/23 03:16:32;;;;;;;4.77;2.73;;;11.40;99.90;;;10.76;80.79;99680.72;4975426;28;20635;-72
2023/03/23 03:19:12;;;;;;;3.07;2.60;;;11.40;99.90;;;10.76;80.90;99675.38;4975224;28;20284;-72
2023/03/23 03:21:50;;;;;;;3.27;2.63;;;11.40;99.90;;;10.76;81.11;99676.19;4975160;28;20292;-72
2023/03/23 03:24:24;;;;;;;4.67;2.50;;;11.40;99.90;;;10.80;80.57;99688.19;4975120;28;20236;-72
2023/03/23 03:26:59;;;;;;;6.17;2.70;;;11.40;99.90;;;10.78;81.40;99700.13;4974995;28;20219;-72
2023/03/23 03:29:34;;;;;;;3.80;2.60;;;11.40;99.90;;;10.74;81.88;99696.16;4975245;28;20565;-72
2023/03/23 03:32:10;;;;;;;3.23;2.63;;;11.40;99.90;;;10.73;82.24;99691.81;4975285;28;20251;-72
2023/03/23 03:34:41;;;;;;;2.73;2.40;;;11.30;99.90;;;10.71;82.55;99697.38;4974880;28;20243;-72
2023/03/23 03:37:15;;;;;;;4.50;2.43;;;11.30;99.90;;;10.66;82.96;99691.72;4974879;28;20209;-72
2023/03/23 03:39:45;;;;;;;5.80;3.23;;;11.30;99.90;;;10.65;83.22;99687.41;4974788;28;20684;-72
2023/03/23 03:42:16;;;;;;;5.03;2.77;;;11.30;99.90;;;10.61;84.00;99703.00;4975069;28;20204;-72
2023/03/23 03:44:46;;;;;;;4.03;2.57;;;11.20;99.90;;;10.62;83.64;99687.75;4974532;28;20237;-72
2023/03/23 03:47:17;;;;;;;5.83;2.60;;;11.30;99.90;;;10.62;83.85;99685.91;4976008;28;20209;-72
2023/03/23 03:49:47;;;;;;;4.20;2.70;;;11.20;99.90;;;10.59;84.10;99686.28;4974860;28;20205;-72
2023/03/23 03:52:19;;;;;;;3.93;3.00;;;11.20;99.90;;;10.58;84.47;99673.91;4974851;28;20197;-72
2023/03/23 03:54:50;;;;;;;4.93;2.80;;;11.20;99.90;;;10.59;84.67;99662.19;4974412;28;20221;-72
2023/03/23 03:57:21;;;;;;;6.00;2.83;;;11.20;99.90;;;10.58;85.16;99667.75;4974447;28;20205;-72
2023/03/23 03:59:52;;;;;;;4.47;3.40;;;11.20;99.90;;;10.52;84.28;99672.00;4974506;28;20204;-72
2023/03/23 04:02:23;;;;;;;2.93;2.63;;;11.10;99.90;;;10.50;84.61;99671.34;4974657;28;20205;-72
2023/03/23 04:04:55;;;;;;;3.90;2.77;;;11.10;99.90;;;10.52;84.14;99681.84;4974225;28;20678;-72
2023/03/23 04:07:29;;;;;;;4.47;3.30;;;11.20;99.90;;;10.52;84.17;99668.47;4974338;28;20255;-72
2023/03/23 04:09:59;;;;;;;5.20;3.67;;;11.20;99.90;;;10.51;84.52;99662.28;4974249;28;20207;-72
2023/03/23 04:12:30;;;;;;;6.83;3.13;;;11.20;99.90;;;10.52;84.24;99669.31;4975057;28;20208;-72
2023/03/23 04:15:00;;;;;;;3.70;2.90;;;11.10;99.90;;;10.51;84.25;99662.28;4974033;28;20228;-72
2023/03/23 04:17:31;;;;;;;4.63;2.97;;;11.20;99.90;;;10.51;84.19;99650.78;4975418;28;20197;-72
2023/03/23 04:20:06;;;;;;;5.63;3.07;;;11.10;99.90;;;10.50;84.37;99660.66;4974018;28;20566;-72
2023/03/23 04:22:38;;;;;;;5.90;3.30;;;11.20;99.90;;;10.50;84.28;99654.47;4974301;28;20224;-72
2023/03/23 04:25:12;;;;;;;4.27;2.90;;;11.10;99.90;;;10.49;84.10;99663.50;4973880;28;20233;-72
2023/03/23 04:27:45;;;;;;;6.30;3.53;;;11.20;99.90;;;10.48;84.06;99662.66;4974028;28;20209;-72
2023/03/23 04:30:19;;;;;;;4.07;2.70;;;11.10;99.90;;;10.49;83.83;99668.84;4973831;28;20642;-72
2023/03/23 04:32:51;;;;;;;4.70;3.00;;;11.20;99.90;;;10.48;84.27;99678.72;4974635;28;20212;-72
2023/03/23 04:35:25;;;;;;;4.27;3.10;;;11.10;99.90;;;10.49;83.89;99667.00;4973749;28;20235;-72
2023/03/23 04:37:58;;;;;;;5.47;3.20;;;11.10;99.90;;;10.49;83.85;99658.16;4973865;28;20237;-72
2023/03/23 04:40:29;;;;;;;3.53;3.13;;;11.10;99.90;;;10.50;83.44;99655.28;4973984;28;20211;-72
2023/03/23 04:43:05;;;;;;;5.33;2.63;;;11.10;99.90;;;10.48;83.29;99654.63;4973922;28;20215;-72
2023/03/23 04:45:41;;;;;;;5.23;2.93;;;11.10;99.90;;;10.49;83.47;99650.94;4973557;28;20693;-72
2023/03/23 04:48:12;;;;;;;3.77;2.80;;;11.10;99.90;;;10.51;83.07;99646.22;4973846;28;20641;-72
2023/03/23 04:50:44;;;;;;;4.70;2.63;;;11.20;99.90;;;10.49;83.05;99648.28;4973455;28;20197;-72
2023/03/23 04:53:17;;;;;;;3.70;2.60;;;11.10;99.90;;;10.49;82.94;99642.94;4973849;28;20197;-72
2023/03/23 04:55:49;;;;;;;3.40;2.70;;;11.10;99.90;;;10.47;82.93;99650.31;4973377;28;20581;-72
2023/03/23 04:58:23;;;;;;;4.10;2.80;;;11.10;99.90;;;10.46;82.94;99640.63;4973778;28;20311;-72
2023/03/23 05:00:53;;;;;;;2.97;2.67;;;11.10;99.90;;;10.47;82.72;99644.97;4973494;28;20260;-72
2023/03/23 05:03:26;;;;;;;3.70;2.33;;;11.10;99.90;;;10.48;81.89;99630.56;4974909;28;20247;-72
2023/03/23 05:05:57;;;;;;;5.03;2.63;;;11.10;99.90;;;10.46;82.08;99635.28;4973160;28;20236;-72
2023/03/23 05:08:31;;;;;;;3.30;2.50;;;11.10;99.90;;;10.45;81.96;99620.22;4973021;28;20208;-72
2023/03/23 05:11:04;;;;;;;3.90;2.53;;;11.10;99.90;;;10.46;81.66;99629.09;4973350;28;20668;-71
2023/03/23 05:13:34;;;;;;;3.97;2.40;;;11.10;99.90;;;10.45;81.90;99641.63;4973565;28;20197;-72
2023/03/23 05:16:08;;;;;;;3.20;2.20;;;11.10;99.90;;;10.45;81.70;99641.63;4973252;28;20225;-72
2023/03/23 05:18:39;;;;;;;5.00;2.50;;;11.10;99.90;;;10.45;81.52;99636.28;4973569;28;20209;-72
2023/03/23 05:21:10;;;;;;;4.37;2.40;;;11.10;99.90;;;10.43;81.65;99641.00;4973333;28;20205;-72
2023/03/23 05:23:42;;;;;;;4.07;2.57;;;11.00;99.90;;;10.44;81.76;99647.19;4973463;28;20263;-72
2023/03/23 05:26:13;;;;;;;4.43;2.40;;;11.00;99.90;;;10.40;81.89;99649.41;4973191;28;20224;-72
2023/03/23 05:28:45;;;;;;;3.07;2.30;;;11.00;99.90;;;10.40;81.52;99654.75;4973078;28;20216;-72
2023/03/23 05:31:16;;;;;;;3.10;2.40;;;11.00;99.90;;;10.39;81.27;99655.75;4973447;28;20201;-72
2023/03/23 05:33:47;;;;;;;4.33;2.40;;;11.00;99.90;;;10.41;81.26;99645.69;4973417;28;20232;-72
2023/03/23 05:36:18;;;;;;;6.33;2.70;;;11.00;99.90;;;10.40;81.14;99646.72;4973059;28;20224;-72
2023/03/23 05:38:51;;;;;;;2.70;2.27;;;11.00;99.90;;;10.39;81.46;99642.38;4973232;28;20642;-72
2023/03/23 05:41:22;;;;;;;4.93;2.27;;;11.00;99.90;;;10.40;81.15;99648.56;4973040;28;20204;-72
2023/03/23 05:43:53;;;;;;;3.47;2.20;;;11.00;99.90;;;10.37;81.11;99647.09;4972998;28;20259;-72
2023/03/23 05:46:24;;;;;;;5.10;2.47;;;11.00;99.90;;;10.38;81.31;99646.06;4973016;28;20224;-72
2023/03/23 05:48:54;;;;;;;3.70;2.27;;;11.00;99.90;;;10.37;81.36;99648.94;4973258;28;20267;-72
2023/03/23 05:51:26;;;;;;;2.80;2.17;;;11.00;99.90;;;10.34;81.29;99652.81;4973269;28;20226;-72
2023/03/23 05:53:58;;;;;;;5.63;2.20;;;11.00;99.90;;;10.39;80.99;99652.25;4973208;28;20701;-72
2023/03/23 05:56:30;;;;;;;3.33;2.13;;;11.00;99.90;;;10.36;81.36;99648.09;4972866;28;20232;-72
2023/03/23 05:59:02;;;;;;;3.90;2.37;;;11.00;99.90;;;10.36;81.15;99660.66;4972774;28;20573;-72
2023/03/23 06:01:33;;;;;;;3.37;1.97;;;11.00;99.90;;;10.36;81.10;99645.44;4972896;28;20201;-72
2023/03/23 06:04:04;;;;;;;2.20;2.00;;;11.00;99.90;;;10.37;80.72;99644.44;4976781;28;20224;-72
2023/03/23 06:06:36;;;;;;;3.73;2.27;;;11.00;99.90;;;10.39;80.99;99654.94;4976439;28;20229;-72
2023/03/23 06:09:08;;;;;;;4.77;2.23;;;11.00;99.90;;;10.42;80.62;99652.72;4976853;28;20247;-72
2023/03/23 06:11:39;;;;;;;4.07;2.53;;;11.10;99.90;;;10.42;80.66;99657.22;4977823;28;20197;-72
2023/03/23 06:14:09;;;;;;;3.63;1.90;;;11.00;99.90;;;10.40;80.54;99657.44;4976772;28;20211;-72
2023/03/23 06:16:40;;;;;;;3.27;2.17;;;11.00;99.90;;;10.45;80.39;99649.66;4976700;28;20208;-72
2023/03/23 06:19:11;;;;;;;2.13;1.90;;;11.10;99.90;;;10.46;80.63;99654.00;4977605;28;20550;-72
2023/03/23 06:21:43;;;;;;;2.40;1.80;;;11.10;99.90;;;10.44;80.44;99661.41;4976660;28;20236;-72
2023/03/23 06:24:15;;;;;;;2.63;1.90;;;11.10;99.90;;;10.46;80.41;99659.34;4976485;28;20566;-72
2023/03/23 06:26:46;;;;;;;3.57;1.80;;;11.10;99.90;;;10.44;80.58;99656.06;4992428;28;20205;-72
2023/03/23 06:29:18;;;;;;;3.13;1.90;;;11.10;99.90;;;10.45;80.84;99649.66;4976343;28;20338;-72
2023/03/23 06:31:56;;;;;;;2.90;2.10;;;11.10;99.90;;;10.47;80.73;99655.69;4976222;28;20197;-72
2023/03/23 06:34:27;;;;;;;2.90;2.00;;;11.10;99.90;;;10.46;81.03;99651.34;4976065;28;20209;-72
2023/03/23 06:36:58;;;;;;;2.53;1.80;;;11.10;99.90;;;10.47;81.06;99644.97;4976167;28;20205;-72
2023/03/23 06:39:30;;;;;;;2.90;1.87;;;11.10;99.90;;;10.46;81.01;99648.66;4976232;28;20575;-72
2023/03/23 06:42:02;;;;;;;2.60;2.07;;;11.10;99.90;;;10.47;80.97;99655.69;4976832;28;20208;-72
2023/03/23 06:44:33;;;;;;;2.70;1.97;;;11.10;99.90;;;10.48;81.12;99656.50;4976112;28;20624;-72
2023/03/23 06:47:04;;;;;;;2.80;1.60;;;11.10;99.90;;;10.48;80.55;99660.00;4976162;28;20220;-72
2023/03/23 06:49:34;;;;;;;3.60;1.70;;;11.10;99.90;;;10.49;80.80;99669.69;4976104;28;20639;-72
2023/03/23 06:52:06;;;;;;;3.03;1.70;;;11.20;99.90;;;10.52;80.86;99669.31;4975813;28;20737;-72
2023/03/23 06:54:38;;;;;;;3.50;1.97;;;11.20;99.90;;;10.55;80.74;99676.13;4975803;28;20279;-72
2023/03/23 06:57:08;;;;;;;2.13;1.77;;;11.20;99.90;;;10.57;81.00;99676.78;4976076;28;20205;-72
2023/03/23 06:59:40;;;;;;;2.87;1.60;;;11.20;99.90;;;10.60;80.43;99671.91;4975931;28;20640;-72
2023/03/23 07:02:11;;;;;;;2.97;1.73;;;11.20;99.90;;;10.62;80.75;99677.88;4975683;28;20198;-72
2023/03/23 07:04:42;;;;;;;2.30;1.77;;;11.30;99.90;;;10.62;80.91;99669.84;4975478;28;20319;-72
2023/03/23 07:07:18;;;;;;;2.97;1.73;;;11.30;99.90;;;10.62;80.15;99671.69;4975595;28;20200;-72
2023/03/23 07:09:50;;;;;;;4.33;1.70;;;11.30;99.90;;;10.65;80.22;99684.72;4975781;28;20200;-72
2023/03/23 07:12:21;;;;;;;3.87;1.60;;;11.30;99.90;;;10.68;80.19;99679.81;4975498;28;20668;-72
2023/03/23 07:14:52;;;;;;;2.73;1.70;;;11.30;99.90;;;10.71;80.33;99672.44;4975243;28;20263;-72
2023/03/23 07:17:23;;;;;;;3.13;1.60;;;11.30;99.90;;;10.80;79.46;99669.47;4975366;28;20580;-72
2023/03/23 07:19:53;;;;;;;28.60;3.60;;;11.40;99.90;;;10.89;79.00;99675.56;4975600;28;20197;-72
2023/03/23 07:22:24;;;;;;;1.80;1.50;;;11.50;99.90;;;10.92;78.54;99680.53;4975259;28;20700;-72
2023/03/23 07:24:56;;;;;;;1.67;1.53;;;11.50;99.90;;;10.92;78.82;99676.00;4975353;28;20240;-72
2023/03/23 07:27:27;;;;;;;1.90;1.70;;;11.60;99.90;;;10.94;78.89;99676.63;4975081;28;20219;-72
2023/03/23 07:29:58;;;;;;;1.70;1.37;;;11.50;99.90;;;10.94;79.16;99673.13;4975395;28;20562;-72
2023/03/23 07:32:29;;;;;;;3.10;1.87;;;11.60;99.90;;;10.94;78.66;99683.84;4975162;28;20212;-72
2023/03/23 07:34:59;;;;;;;2.30;1.63;;;11.50;99.90;;;11.04;78.13;99684.38;4975027;28;20272;-72
2023/03/23 07:37:32;;;;;;;5.10;2.30;;;11.70;99.90;;;11.07;77.79;99684.81;4975292;28;20212;-71
2023/03/23 07:40:14;;;;;;;6.23;2.57;;;11.70;99.90;;;11.13;77.89;99691.25;4974988;28;20205;-71
2023/03/23 07:42:43;;;;;;;2.97;2.00;;;11.80;99.90;;;11.19;77.78;99682.47;4974928;28;20285;-72
2023/03/23 07:45:15;;;;;;;3.53;1.80;;;11.80;99.90;;;11.22;77.01;99692.81;4974923;28;20247;-72
2023/03/23 07:47:46;;;;;;;2.20;1.73;;;11.80;99.90;;;11.26;77.36;99694.09;4975571;28;20538;-72
2023/03/23 07:50:17;;;;;;;2.57;1.80;;;11.90;99.90;;;11.38;76.25;99681.84;4975085;28;20197;-72
2023/03/23 07:52:49;;;;;;;3.90;2.03;;;12.00;99.90;;;11.39;76.33;99683.50;4974725;28;20646;-72
2023/03/23 07:55:24;;;;;;;3.10;2.00;;;12.00;99.90;;;11.41;75.84;99678.78;4974900;28;20653;-72
2023/03/23 07:57:56;;;;;;;3.47;1.93;;;12.00;99.90;;;11.46;77.19;99679.06;4974668;28;20207;-72
2023/03/23 08:00:29;;;;;;;3.30;2.00;;;12.10;99.90;;;11.56;76.29;99671.50;4974851;28;20201;-72
2023/03/23 08:03:02;;;;;;;4.70;2.10;;;12.20;99.90;;;11.65;75.42;99673.03;4974848;28;20209;-72
2023/03/23 08:05:33;;;;;;;4.40;2.10;;;12.30;99.90;;;11.69;74.78;99677.00;4974507;28;20236;-72
2023/03/23 08:08:07;;;;;;;2.03;1.80;;;12.30;99.80;;;11.78;74.30;99674.22;4974302;28;20264;-72
2023/03/23 08:10:39;;;;;;;2.70;1.77;;;12.40;99.60;;;11.86;73.98;99680.25;4974272;28;20208;-72
2023/03/23 08:13:10;;;;;;;3.73;2.00;;;12.40;99.10;;;11.83;75.48;99691.38;4974240;28;20654;-72
2023/03/23 08:15:41;;;;;;;3.90;2.10;;;12.40;99.80;;;11.95;73.96;99689.00;4974023;28;20228;-72
2023/03/23 08:18:12;;;;;;;2.73;1.90;;;12.50;99.20;;;11.94;74.06;99684.66;4974167;28;20205;-72
2023/03/23 08:20:44;;;;;;;3.57;1.97;;;12.60;99.30;;;11.95;74.15;99678.28;4974063;28;20209;-72
2023/03/23 08:23:15;;;;;;;2.87;1.87;;;12.60;99.10;;;12.05;73.29;99673.38;4974100;28;20204;-72
2023/03/23 08:25:48;;;;;;;3.67;2.10;;;12.60;98.80;;;12.07;72.92;99695.47;4973133;28;20315;-72
2023/03/23 08:28:18;;;;;;;2.93;1.93;;;12.60;98.90;;;12.08;73.25;99695.28;4974118;28;20268;-72
2023/03/23 08:30:49;;;;;;;4.10;2.00;;;12.70;98.80;;;12.16;72.56;99686.25;4974168;28;20212;-72
2023/03/23 08:33:21;;;;;;;3.53;2.03;;;12.80;98.80;;;12.20;72.67;99692.88;4974143;28;20211;-72
2023/03/23 08:35:58;;;;;;;3.70;2.03;;;12.80;98.50;;;12.22;71.78;99695.38;4973627;28;20236;-72
2023/03/23 08:38:30;;;;;;;3.97;2.47;;;12.80;98.20;;;12.27;72.55;99695.59;4973807;28;20208;-72
2023/03/23 08:41:07;;;;;;;4.37;2.30;;;12.90;98.30;;;12.29;72.15;99694.41;4973879;28;20295;-72
2023/03/23 08:43:39;;;;;;;2.90;2.37;;;12.80;98.30;;;12.36;70.72;99687.22;4973734;28;20322;-72
2023/03/23 08:46:11;;;;;;;5.17;2.10;;;12.90;97.40;;;12.35;71.69;99698.97;4973500;28;20236;-72
2023/03/23 08:48:43;;;;;;;4.50;2.17;;;12.90;97.80;;;12.42;69.96;99690.97;4973543;28;20215;-72
2023/03/23 08:51:15;;;;;;;3.87;2.00;;;13.00;97.40;;;12.48;70.42;99700.91;4973556;28;20216;-72
2023/03/23 08:53:45;;;;;;;4.43;2.20;;;13.00;97.40;;;12.45;71.52;99699.44;4973528;28;20638;-72
2023/03/23 08:56:17;;;;;;;3.70;2.10;;;13.10;97.60;;;12.47;70.62;99694.72;4973622;28;20720;-72
2023/03/23 08:58:48;;;;;;;4.83;2.40;;;13.10;97.90;;;12.47;71.62;99691.19;4973438;28;20204;-72
2023/03/23 09:01:19;;;;;;;5.17;2.20;;;13.10;97.60;;;12.50;70.49;99698.88;4973620;28;20236;-72
2023/03/23 09:03:51;;;;;;;3.67;2.27;;;13.00;97.40;;;12.50;70.91;99705.03;4973421;28;20713;-72
2023/03/23 09:06:22;;;;;;;6.40;2.50;;;13.10;97.50;;;12.49;71.19;99708.78;4973458;28;20312;-72
2023/03/23 09:08:55;;;;;;;6.40;2.57;;;13.10;97.70;;;12.52;71.62;99705.69;4973013;28;20202;-72
2023/03/23 09:11:27;;;;;;;3.20;1.97;;;13.10;97.70;;;12.50;71.43;99705.03;4973203;28;20642;-73
2023/03/23 09:14:00;;;;;;;3.80;2.30;;;13.10;97.60;;;12.54;71.17;99706.31;4973179;28;20204;-74
2023/03/23 09:16:33;;;;;;;4.70;2.13;;;13.10;97.50;;;12.56;71.73;99720.38;4972750;28;20235;-74
2023/03/23 09:19:08;;;;;;;3.47;2.20;;;13.20;97.70;;;12.57;71.14;99710.44;4974157;28;20197;-74
2023/03/23 09:21:39;;;;;;;4.20;2.10;;;13.10;97.60;;;12.56;71.38;99719.56;4973319;28;20255;-73
2023/03/23 09:24:11;;;;;;;4.30;2.20;;;13.10;97.50;;;12.54;71.71;99711.69;4973243;28;20197;-75
2023/03/23 09:26:45;;;;;;;5.23;2.37;;;13.10;97.60;;;12.56;71.35;99719.56;4972914;28;20216;-73
2023/03/23 09:29:19;;;;;;;24.93;4.83;;;13.10;97.70;;;12.61;70.86;99715.22;4973471;28;20204;-74
2023/03/23 09:31:49;;;;;;;5.33;2.30;;;13.20;97.40;;;12.64;69.41;99717.53;4973715;28;20251;-73
2023/03/23 09:34:20;;;;;;;6.03;2.20;;;13.20;97.20;;;12.62;70.29;99730.31;4973102;28;20654;-73
2023/03/23 09:36:52;;;;;;;4.27;2.10;;;13.20;97.20;;;12.62;71.30;99724.97;4974723;28;20212;-73
2023/03/23 09:39:23;;;;;;;6.17;2.33;;;13.20;97.50;;;12.60;71.23;99731.56;4977196;28;20562;-73
2023/03/23 09:42:17;;;;;;;5.63;2.43;;;13.20;97.50;;;12.64;70.56;99732.81;4977390;28;20646;-73
2023/03/23 09:45:02;;;;;;;5.43;2.23;;;13.20;97.10;;;12.61;70.78;99734.03;4977204;28;20228;-73
2023/03/23 09:47:45;;;;;;;5.93;2.30;;;13.20;97.30;;;12.65;70.06;99737.97;4976895;28;20207;-74
2023/03/23 09:50:20;;;;;;;5.97;2.80;;;13.20;97.20;;;12.70;69.51;99742.78;4976011;28;20567;-74
2023/03/23 09:52:57;;;;;;;7.40;2.67;;;13.20;96.80;;;12.67;70.16;99749.34;4977931;28;20205;-73
2023/03/23 09:55:29;;;;;;;5.87;2.47;;;13.20;97.00;;;12.69;69.47;99754.53;4976850;28;20275;-73
2023/03/23 09:58:11;;;;;;;5.33;2.23;;;13.30;97.00;;;12.66;70.00;99742.34;4976787;28;20677;-74
2023/03/23 10:00:49;;;;;;;4.87;3.00;;;13.20;97.30;;;12.63;69.88;99753.47;4976766;28;20205;-73
2023/03/23 10:03:26;;;;;;;5.83;2.37;;;13.20;97.00;;;12.65;69.26;99756.78;4977026;28;20208;-73
2023/03/23 10:06:00;;;;;;;5.83;2.60;;;13.20;96.70;;;12.67;69.25;99759.28;4976581;28;20272;-73
2023/03/23 10:08:34;;;;;;;5.90;2.53;;;13.20;96.60;;;12.66;69.37;99753.09;4976917;28;20252;-73
2023/03/23 10:11:12;;;;;;;7.40;2.37;;;13.20;96.70;;;12.61;70.50;99762.72;4976698;28;20201;-73
2023/03/23 10:14:14;;;;;;;5.90;2.50;;;13.20;97.00;;;12.61;70.08;99757.38;4976850;28;20193;-73
2023/03/23 10:16:56;;;;;;;5.00;2.33;;;13.20;96.80;;;12.58;69.31;99766.66;4976448;28;20231;-73
2023/03/23 10:19:39;;;;;;;7.57;2.87;;;13.20;96.80;;;12.61;69.00;99773.47;4976765;28;20201;-73
2023/03/23 10:22:16;;;;;;;11.63;5.30;;;13.20;96.50;;;12.57;69.41;99774.88;4976431;28;20285;-71
2023/03/23 10:24:53;;;;;;;11.20;3.23;;;13.10;96.90;;;12.55;68.88;99776.94;4976324;28;20231;-73
2023/03/23 10:27:38;;;;;;;5.47;2.37;;;13.10;96.70;;;12.59;69.39;99788.97;4976223;28;20235;-73
2023/03/23 10:30:25;;;;;;;5.47;2.40;;;13.20;96.40;;;12.59;69.20;99781.75;4976588;28;20297;-73
2023/03/23 10:33:02;;;;;;;7.90;2.67;;;13.20;96.60;;;12.60;69.11;99778.00;4976508;28;20570;-73
2023/03/23 10:35:39;;;;;;;7.30;2.60;;;13.20;96.50;;;12.62;68.21;99784.03;4976425;28;20279;-73
2023/03/23 10:38:17;;;;;;;5.60;2.57;;;13.20;96.30;;;12.69;68.59;99784.91;4976121;28;20638;-72
2023/03/23 10:40:55;;;;;;;6.53;2.87;;;13.20;96.30;;;12.75;68.25;99782.44;4977287;28;20189;-72
2023/03/23 10:43:27;;;;;;;7.53;3.73;;;13.30;96.00;;;12.75;67.66;99785.13;4976049;28;20578;-75
2023/03/23 10:46:12;;;;;;;8.70;2.10;;;13.30;96.30;;;12.81;67.88;99776.31;4975850;28;20231;-76
2023/03/23 10:48:47;;;;;;;5.57;2.70;;;13.40;96.10;;;12.89;67.95;99778.81;4975004;28;20217;-77